sensor_id;sensor_type;location;lat;lon;timestamp;temperature;humidity
15916;DHT22;8057;47.830;-3.870;2024-02-21T00:03:43;11.40;99.90
15916;DHT22;8057;47.830;-3.870;2024-02-21T00:07:54;11.50;99.90
15916;DHT22;8057;47.830;-3.870;2024-02-21T00:12:03;11.50;99.90
15916;DHT22;8057;47.830;-3.870;2024-02-21T00:16:12;11.50;99.90
15916;DHT22;8057;47.830;-3.870;2024-02-21T00:20:23;11.50;99.90
15916;DHT22;8057;47.830;-3.870;2024-02-21T00:24:34;11.50;99.90
15916;DHT22;8057;47.830;-3.870;2024-02-21T00:28:43;11.50;99.90
15916;DHT22;8057;47.830;-3.870;2024-02-21T00:32:52;11.50;99.90
15916;DHT22;8057;47.830;-3.870;2024-02-21T00:37:01;11.40;99.90
15916;DHT22;8057;47.830;-3.870;2024-02-21T00:41:11;11.50;99.90
15916;DHT22;8057;47.830;-3.870;2024-02-21T00:45:20;11.50;99.90
15916;DHT22;8057;47.830;-3.870;2024-02-21T00:49:29;11.50;99.90
15916;DHT22;8057;47.830;-3.870;2024-02-21T00:53:38;11.50;99.90
15916;DHT22;8057;47.830;-3.870;2024-02-21T00:57:48;11.50;99.90
15916;DHT22;8057;47.830;-3.870;2024-02-21T01:01:57;11.50;99.90
15916;DHT22;8057;47.830;-3.870;2024-02-21T01:06:06;11.50;99.90
15916;DHT22;8057;47.830;-3.870;2024-02-21T01:10:15;11.40;99.90
15916;DHT22;8057;47.830;-3.870;2024-02-21T01:14:26;11.50;99.90
15916;DHT22;8057;47.830;-3.870;2024-02-21T01:18:36;11.40;99.90
15916;DHT22;8057;47.830;-3.870;2024-02-21T01:22:46;11.50;99.90
15916;DHT22;8057;47.830;-3.870;2024-02-21T01:26:55;11.50;99.90
15916;DHT22;8057;47.830;-3.870;2024-02-21T01:31:06;11.50;99.90
15916;DHT22;8057;47.830;-3.870;2024-02-21T01:35:15;11.50;99.90
15916;DHT22;8057;47.830;-3.870;2024-02-21T01:39:24;11.50;99.90
15916;DHT22;8057;47.830;-3.870;2024-02-21T01:43:32;11.50;99.90
15916;DHT22;8057;47.830;-3.870;2024-02-21T01:47:43;11.50;99.90
15916;DHT22;8057;47.830;-3.870;2024-02-21T01:51:52;11.40;99.90
15916;DHT22;8057;47.830;-3.870;2024-02-21T01:56:02;11.40;99.90
15916;DHT22;8057;47.830;-3.870;2024-02-21T02:00:14;11.50;99.90
15916;DHT22;8057;47.830;-3.870;2024-02-21T02:04:26;11.50;99.90
15916;DHT22;8057;47.830;-3.870;2024-02-21T02:08:35;11.50;99.90
15916;DHT22;8057;47.830;-3.870;2024-02-21T02:12:45;11.50;99.90
15916;DHT22;8057;47.830;-3.870;2024-02-21T02:16:53;11.50;99.90
15916;DHT22;8057;47.830;-3.870;2024-02-21T02:21:05;11.60;99.90
15916;DHT22;8057;47.830;-3.870;2024-02-21T02:25:19;11.60;99.90
15916;DHT22;8057;47.830;-3.870;2024-02-21T02:29:28;11.60;99.90
15916;DHT22;8057;47.830;-3.870;2024-02-21T02:33:41;11.50;99.90
15916;DHT22;8057;47.830;-3.870;2024-02-21T02:37:51;11.50;99.90
15916;DHT22;8057;47.830;-3.870;2024-02-21T02:42:01;11.50;99.90
15916;DHT22;8057;47.830;-3.870;2024-02-21T02:46:10;11.50;99.90
15916;DHT22;8057;47.830;-3.870;2024-02-21T02:50:19;11.50;99.90
15916;DHT22;8057;47.830;-3.870;2024-02-21T02:54:28;11.50;99.90
15916;DHT22;8057;47.830;-3.870;2024-02-21T02:58:38;11.50;99.90
15916;DHT22;8057;47.830;-3.870;2024-02-21T03:02:49;11.50;99.90
15916;DHT22;8057;47.830;-3.870;2024-02-21T03:06:57;11.50;99.90
15916;DHT22;8057;47.830;-3.870;2024-02-21T03:11:06;11.60;99.90
15916;DHT22;8057;47.830;-3.870;2024-02-21T03:15:17;11.60;99.90
15916;DHT22;8057;47.830;-3.870;2024-02-21T03:19:26;11.50;99.90
15916;DHT22;8057;47.830;-3.870;2024-02-21T03:23:35;11.50;99.90
15916;DHT22;8057;47.830;-3.870;2024-02-21T03:27:44;11.50;99.90
15916;DHT22;8057;47.830;-3.870;2024-02-21T03:31:55;11.50;99.90
15916;DHT22;8057;47.830;-3.870;2024-02-21T03:36:04;11.50;99.90
15916;DHT22;8057;47.830;-3.870;2024-02-21T03:40:13;11.60;99.90
15916;DHT22;8057;47.830;-3.870;2024-02-21T03:44:23;11.60;99.90
15916;DHT22;8057;47.830;-3.870;2024-02-21T03:48:33;11.60;99.90
15916;DHT22;8057;47.830;-3.870;2024-02-21T03:52:42;11.60;99.90
15916;DHT22;8057;47.830;-3.870;2024-02-21T03:56:51;11.60;99.90
15916;DHT22;8057;47.830;-3.870;2024-02-21T04:01:00;11.50;99.90
15916;DHT22;8057;47.830;-3.870;2024-02-21T04:05:11;11.50;99.90
15916;DHT22;8057;47.830;-3.870;2024-02-21T04:09:20;11.60;99.90
15916;DHT22;8057;47.830;-3.870;2024-02-21T04:13:29;11.60;99.90
15916;DHT22;8057;47.830;-3.870;2024-02-21T04:17:38;11.60;99.90
15916;DHT22;8057;47.830;-3.870;2024-02-21T04:21:48;11.60;99.90
15916;DHT22;8057;47.830;-3.870;2024-02-21T04:25:57;11.60;99.90
15916;DHT22;8057;47.830;-3.870;2024-02-21T04:30:08;11.60;99.90
15916;DHT22;8057;47.830;-3.870;2024-02-21T04:34:17;11.60;99.90
15916;DHT22;8057;47.830;-3.870;2024-02-21T04:38:27;11.50;99.90
15916;DHT22;8057;47.830;-3.870;2024-02-21T04:42:36;11.40;99.90
15916;DHT22;8057;47.830;-3.870;2024-02-21T04:46:45;11.50;99.90
15916;DHT22;8057;47.830;-3.870;2024-02-21T04:50:54;11.50;99.90
15916;DHT22;8057;47.830;-3.870;2024-02-21T04:55:05;11.50;99.90
15916;DHT22;8057;47.830;-3.870;2024-02-21T04:59:14;11.50;99.90
15916;DHT22;8057;47.830;-3.870;2024-02-21T05:03:23;11.50;99.90
15916;DHT22;8057;47.830;-3.870;2024-02-21T05:07:32;11.60;99.90
15916;DHT22;8057;47.830;-3.870;2024-02-21T05:11:42;11.60;99.90
15916;DHT22;8057;47.830;-3.870;2024-02-21T05:15:51;11.50;99.90
15916;DHT22;8057;47.830;-3.870;2024-02-21T05:20:00;11.50;99.90
15916;DHT22;8057;47.830;-3.870;2024-02-21T05:24:10;11.50;99.90
15916;DHT22;8057;47.830;-3.870;2024-02-21T05:28:20;11.50;99.90
15916;DHT22;8057;47.830;-3.870;2024-02-21T05:32:29;11.50;99.90
15916;DHT22;8057;47.830;-3.870;2024-02-21T05:36:38;11.50;99.90
15916;DHT22;8057;47.830;-3.870;2024-02-21T05:40:46;11.50;99.90
15916;DHT22;8057;47.830;-3.870;2024-02-21T05:44:57;11.60;99.90
15916;DHT22;8057;47.830;-3.870;2024-02-21T05:49:06;11.60;99.90
15916;DHT22;8057;47.830;-3.870;2024-02-21T05:53:15;11.60;99.90
15916;DHT22;8057;47.830;-3.870;2024-02-21T05:57:24;11.60;99.90
15916;DHT22;8057;47.830;-3.870;2024-02-21T06:01:34;11.40;99.90
15916;DHT22;8057;47.830;-3.870;2024-02-21T06:05:43;11.40;99.90
15916;DHT22;8057;47.830;-3.870;2024-02-21T06:09:52;11.50;99.90
15916;DHT22;8057;47.830;-3.870;2024-02-21T06:14:01;11.50;99.90
15916;DHT22;8057;47.830;-3.870;2024-02-21T06:18:12;11.50;99.90
15916;DHT22;8057;47.830;-3.870;2024-02-21T06:22:22;11.50;99.90
15916;DHT22;8057;47.830;-3.870;2024-02-21T06:26:30;11.40;99.90
15916;DHT22;8057;47.830;-3.870;2024-02-21T06:30:40;11.40;99.90
15916;DHT22;8057;47.830;-3.870;2024-02-21T06:34:50;11.40;99.90
15916;DHT22;8057;47.830;-3.870;2024-02-21T06:38:59;11.30;99.90
15916;DHT22;8057;47.830;-3.870;2024-02-21T06:43:08;11.30;99.90
15916;DHT22;8057;47.830;-3.870;2024-02-21T06:47:17;11.40;99.90
15916;DHT22;8057;47.830;-3.870;2024-02-21T06:51:28;11.40;99.90
15916;DHT22;8057;47.830;-3.870;2024-02-21T06:55:38;11.40;99.90
15916;DHT22;8057;47.830;-3.870;2024-02-21T06:59:47;11.50;99.90
15916;DHT22;8057;47.830;-3.870;2024-02-21T07:03:56;11.50;99.90
15916;DHT22;8057;47.830;-3.870;2024-02-21T07:08:06;11.50;99.90
15916;DHT22;8057;47.830;-3.870;2024-02-21T07:12:15;11.50;99.90
15916;DHT22;8057;47.830;-3.870;2024-02-21T07:16:24;11.50;99.90
15916;DHT22;8057;47.830;-3.870;2024-02-21T07:20:33;11.40;99.90
15916;DHT22;8057;47.830;-3.870;2024-02-21T07:24:45;11.40;99.90
15916;DHT22;8057;47.830;-3.870;2024-02-21T07:28:54;11.40;99.90
15916;DHT22;8057;47.830;-3.870;2024-02-21T07:33:04;11.40;99.90
15916;DHT22;8057;47.830;-3.870;2024-02-21T07:37:14;11.40;99.90
15916;DHT22;8057;47.830;-3.870;2024-02-21T07:41:25;11.40;99.90
15916;DHT22;8057;47.830;-3.870;2024-02-21T07:45:33;11.50;99.90
15916;DHT22;8057;47.830;-3.870;2024-02-21T07:49:44;11.50;99.90
15916;DHT22;8057;47.830;-3.870;2024-02-21T07:53:53;11.60;99.90
15916;DHT22;8057;47.830;-3.870;2024-02-21T07:58:04;11.60;99.90
15916;DHT22;8057;47.830;-3.870;2024-02-21T08:02:14;11.60;99.90
15916;DHT22;8057;47.830;-3.870;2024-02-21T08:06:23;11.60;99.90
15916;DHT22;8057;47.830;-3.870;2024-02-21T08:10:31;11.50;99.90
15916;DHT22;8057;47.830;-3.870;2024-02-21T08:14:42;11.50;99.90
15916;DHT22;8057;47.830;-3.870;2024-02-21T08:18:51;11.50;99.90
15916;DHT22;8057;47.830;-3.870;2024-02-21T08:23:00;11.60;99.90
15916;DHT22;8057;47.830;-3.870;2024-02-21T08:27:09;11.60;99.90
15916;DHT22;8057;47.830;-3.870;2024-02-21T08:31:22;11.60;99.90
15916;DHT22;8057;47.830;-3.870;2024-02-21T08:35:32;11.50;99.90
15916;DHT22;8057;47.830;-3.870;2024-02-21T08:39:41;11.50;99.90
15916;DHT22;8057;47.830;-3.870;2024-02-21T08:43:50;11.40;99.90
15916;DHT22;8057;47.830;-3.870;2024-02-21T08:48:00;11.40;99.90
15916;DHT22;8057;47.830;-3.870;2024-02-21T08:52:09;11.50;99.90
15916;DHT22;8057;47.830;-3.870;2024-02-21T08:56:18;11.50;99.90
15916;DHT22;8057;47.830;-3.870;2024-02-21T09:00:27;11.50;99.90
15916;DHT22;8057;47.830;-3.870;2024-02-21T09:04:38;11.50;99.90
15916;DHT22;8057;47.830;-3.870;2024-02-21T09:08:47;11.50;99.90
15916;DHT22;8057;47.830;-3.870;2024-02-21T09:12:56;11.60;99.90
15916;DHT22;8057;47.830;-3.870;2024-02-21T09:17:05;11.80;99.90
15916;DHT22;8057;47.830;-3.870;2024-02-21T09:21:15;11.70;99.90
15916;DHT22;8057;47.830;-3.870;2024-02-21T09:25:24;11.70;99.90
15916;DHT22;8057;47.830;-3.870;2024-02-21T09:29:33;11.70;99.90
15916;DHT22;8057;47.830;-3.870;2024-02-21T09:33:42;11.80;99.90
15916;DHT22;8057;47.830;-3.870;2024-02-21T09:37:53;11.80;99.90
15916;DHT22;8057;47.830;-3.870;2024-02-21T09:42:06;11.80;99.90
15916;DHT22;8057;47.830;-3.870;2024-02-21T09:46:17;11.70;99.90
15916;DHT22;8057;47.830;-3.870;2024-02-21T09:50:26;11.70;99.90
15916;DHT22;8057;47.830;-3.870;2024-02-21T09:54:37;11.70;99.90
15916;DHT22;8057;47.830;-3.870;2024-02-21T09:58:47;11.80;99.90
15916;DHT22;8057;47.830;-3.870;2024-02-21T10:02:56;11.80;99.90
15916;DHT22;8057;47.830;-3.870;2024-02-21T10:07:05;11.70;99.90
15916;DHT22;8057;47.830;-3.870;2024-02-21T10:11:23;11.70;99.90
15916;DHT22;8057;47.830;-3.870;2024-02-21T10:15:32;11.60;99.90
15916;DHT22;8057;47.830;-3.870;2024-02-21T10:19:41;11.70;99.90
15916;DHT22;8057;47.830;-3.870;2024-02-21T10:23:51;11.70;99.90
15916;DHT22;8057;47.830;-3.870;2024-02-21T10:28:02;11.70;99.90
15916;DHT22;8057;47.830;-3.870;2024-02-21T10:32:12;11.60;99.90
15916;DHT22;8057;47.830;-3.870;2024-02-21T10:36:22;11.70;99.90
15916;DHT22;8057;47.830;-3.870;2024-02-21T10:40:30;11.80;99.90
15916;DHT22;8057;47.830;-3.870;2024-02-21T10:44:41;11.80;99.90
15916;DHT22;8057;47.830;-3.870;2024-02-21T10:49:01;11.90;99.90
15916;DHT22;8057;47.830;-3.870;2024-02-21T10:53:20;11.90;99.90
15916;DHT22;8057;47.830;-3.870;2024-02-21T10:57:33;12.00;99.90
15916;DHT22;8057;47.830;-3.870;2024-02-21T11:01:44;12.10;99.90
15916;DHT22;8057;47.830;-3.870;2024-02-21T11:05:54;12.00;99.90
15916;DHT22;8057;47.830;-3.870;2024-02-21T11:10:03;12.10;99.90
15916;DHT22;8057;47.830;-3.870;2024-02-21T11:14:18;12.10;99.90
15916;DHT22;8057;47.830;-3.870;2024-02-21T11:18:29;12.10;99.90
15916;DHT22;8057;47.830;-3.870;2024-02-21T11:22:42;12.20;99.90
15916;DHT22;8057;47.830;-3.870;2024-02-21T11:26:51;12.20;99.90
15916;DHT22;8057;47.830;-3.870;2024-02-21T11:31:10;12.10;99.90
15916;DHT22;8057;47.830;-3.870;2024-02-21T11:35:22;12.20;99.90
15916;DHT22;8057;47.830;-3.870;2024-02-21T11:39:31;12.30;99.90
15916;DHT22;8057;47.830;-3.870;2024-02-21T11:43:40;12.30;99.90
15916;DHT22;8057;47.830;-3.870;2024-02-21T11:47:49;12.30;99.90
15916;DHT22;8057;47.830;-3.870;2024-02-21T11:52:00;12.40;99.90
15916;DHT22;8057;47.830;-3.870;2024-02-21T11:56:11;12.40;99.90
15916;DHT22;8057;47.830;-3.870;2024-02-21T12:00:21;12.40;99.90
15916;DHT22;8057;47.830;-3.870;2024-02-21T12:04:31;12.40;99.90
15916;DHT22;8057;47.830;-3.870;2024-02-21T12:08:43;12.50;99.90
15916;DHT22;8057;47.830;-3.870;2024-02-21T12:12:51;12.50;99.90
15916;DHT22;8057;47.830;-3.870;2024-02-21T12:17:02;12.60;99.90
15916;DHT22;8057;47.830;-3.870;2024-02-21T12:21:13;12.60;99.90
15916;DHT22;8057;47.830;-3.870;2024-02-21T12:25:23;12.60;99.90
15916;DHT22;8057;47.830;-3.870;2024-02-21T12:29:33;12.70;99.90
15916;DHT22;8057;47.830;-3.870;2024-02-21T12:33:43;12.70;99.90
15916;DHT22;8057;47.830;-3.870;2024-02-21T12:37:52;12.70;99.90
15916;DHT22;8057;47.830;-3.870;2024-02-21T12:42:03;12.70;99.90
15916;DHT22;8057;47.830;-3.870;2024-02-21T12:46:12;12.80;99.90
15916;DHT22;8057;47.830;-3.870;2024-02-21T12:50:21;12.80;99.90
15916;DHT22;8057;47.830;-3.870;2024-02-21T12:54:30;12.90;99.90
15916;DHT22;8057;47.830;-3.870;2024-02-21T12:58:41;12.90;99.90
15916;DHT22;8057;47.830;-3.870;2024-02-21T13:03:17;12.90;99.90
15916;DHT22;8057;47.830;-3.870;2024-02-21T13:12:20;12.90;99.90
15916;DHT22;8057;47.830;-3.870;2024-02-21T13:16:31;13.00;99.90
15916;DHT22;8057;47.830;-3.870;2024-02-21T13:20:42;13.00;99.90
15916;DHT22;8057;47.830;-3.870;2024-02-21T13:24:51;12.90;99.90
15916;DHT22;8057;47.830;-3.870;2024-02-21T13:29:03;12.90;99.90
15916;DHT22;8057;47.830;-3.870;2024-02-21T13:33:14;12.90;99.90
15916;DHT22;8057;47.830;-3.870;2024-02-21T13:37:24;13.00;99.90
15916;DHT22;8057;47.830;-3.870;2024-02-21T13:41:33;13.00;99.90
15916;DHT22;8057;47.830;-3.870;2024-02-21T13:45:56;13.00;99.90
15916;DHT22;8057;47.830;-3.870;2024-02-21T13:50:07;13.00;99.90
15916;DHT22;8057;47.830;-3.870;2024-02-21T13:54:18;13.00;99.90
15916;DHT22;8057;47.830;-3.870;2024-02-21T13:58:28;13.00;99.90
15916;DHT22;8057;47.830;-3.870;2024-02-21T14:02:39;13.00;99.90
15916;DHT22;8057;47.830;-3.870;2024-02-21T14:06:50;13.00;99.90
15916;DHT22;8057;47.830;-3.870;2024-02-21T14:11:00;13.00;99.90
15916;DHT22;8057;47.830;-3.870;2024-02-21T14:15:10;13.00;99.90
15916;DHT22;8057;47.830;-3.870;2024-02-21T14:19:19;13.00;99.90
15916;DHT22;8057;47.830;-3.870;2024-02-21T14:23:30;13.00;99.90
15916;DHT22;8057;47.830;-3.870;2024-02-21T14:27:41;13.00;99.90
15916;DHT22;8057;47.830;-3.870;2024-02-21T14:31:51;13.00;99.90
15916;DHT22;8057;47.830;-3.870;2024-02-21T14:36:00;13.10;99.90
15916;DHT22;8057;47.830;-3.870;2024-02-21T14:40:12;13.10;99.90
15916;DHT22;8057;47.830;-3.870;2024-02-21T14:44:21;13.10;99.90
15916;DHT22;8057;47.830;-3.870;2024-02-21T14:48:30;13.10;99.90
15916;DHT22;8057;47.830;-3.870;2024-02-21T14:52:39;13.10;99.90
15916;DHT22;8057;47.830;-3.870;2024-02-21T14:56:50;13.10;99.90
15916;DHT22;8057;47.830;-3.870;2024-02-21T15:00:59;13.10;99.90
15916;DHT22;8057;47.830;-3.870;2024-02-21T15:05:09;13.00;99.90
15916;DHT22;8057;47.830;-3.870;2024-02-21T15:09:19;13.00;99.90
15916;DHT22;8057;47.830;-3.870;2024-02-21T15:13:29;13.10;99.90
15916;DHT22;8057;47.830;-3.870;2024-02-21T15:17:41;13.10;99.90
15916;DHT22;8057;47.830;-3.870;2024-02-21T15:22:05;13.10;99.90
15916;DHT22;8057;47.830;-3.870;2024-02-21T15:26:14;13.10;99.90
15916;DHT22;8057;47.830;-3.870;2024-02-21T15:30:26;13.10;99.90
15916;DHT22;8057;47.830;-3.870;2024-02-21T15:34:39;13.10;99.90
15916;DHT22;8057;47.830;-3.870;2024-02-21T15:38:49;13.10;99.90
15916;DHT22;8057;47.830;-3.870;2024-02-21T15:42:58;13.10;99.90
15916;DHT22;8057;47.830;-3.870;2024-02-21T15:47:08;13.10;99.90
15916;DHT22;8057;47.830;-3.870;2024-02-21T15:51:18;13.10;99.90
15916;DHT22;8057;47.830;-3.870;2024-02-21T15:55:27;13.10;99.90
15916;DHT22;8057;47.830;-3.870;2024-02-21T15:59:37;13.00;99.90
15916;DHT22;8057;47.830;-3.870;2024-02-21T16:03:47;13.10;99.90
15916;DHT22;8057;47.830;-3.870;2024-02-21T16:07:57;13.10;99.90
15916;DHT22;8057;47.830;-3.870;2024-02-21T16:12:06;13.00;99.90
15916;DHT22;8057;47.830;-3.870;2024-02-21T16:16:17;13.00;99.90
15916;DHT22;8057;47.830;-3.870;2024-02-21T16:20:28;13.10;99.90
15916;DHT22;8057;47.830;-3.870;2024-02-21T16:24:37;13.20;99.90
15916;DHT22;8057;47.830;-3.870;2024-02-21T16:28:46;13.10;99.90
15916;DHT22;8057;47.830;-3.870;2024-02-21T16:32:55;13.10;99.90
15916;DHT22;8057;47.830;-3.870;2024-02-21T16:37:06;13.10;99.90
15916;DHT22;8057;47.830;-3.870;2024-02-21T16:41:15;13.10;99.90
15916;DHT22;8057;47.830;-3.870;2024-02-21T16:45:24;13.10;99.90
15916;DHT22;8057;47.830;-3.870;2024-02-21T16:49:34;13.10;99.90
15916;DHT22;8057;47.830;-3.870;2024-02-21T16:53:45;13.10;99.90
15916;DHT22;8057;47.830;-3.870;2024-02-21T16:57:54;13.10;99.90
15916;DHT22;8057;47.830;-3.870;2024-02-21T17:02:03;13.10;99.90
15916;DHT22;8057;47.830;-3.870;2024-02-21T17:06:14;13.00;99.90
15916;DHT22;8057;47.830;-3.870;2024-02-21T17:10:26;13.00;99.90
15916;DHT22;8057;47.830;-3.870;2024-02-21T17:14:35;13.00;99.90
15916;DHT22;8057;47.830;-3.870;2024-02-21T17:18:46;13.00;99.90
15916;DHT22;8057;47.830;-3.870;2024-02-21T17:22:55;13.00;99.90
15916;DHT22;8057;47.830;-3.870;2024-02-21T17:27:06;13.00;99.90
15916;DHT22;8057;47.830;-3.870;2024-02-21T17:31:16;13.00;99.90
15916;DHT22;8057;47.830;-3.870;2024-02-21T17:35:25;13.00;99.90
15916;DHT22;8057;47.830;-3.870;2024-02-21T17:39:34;13.00;99.90
15916;DHT22;8057;47.830;-3.870;2024-02-21T17:43:44;13.00;99.90
15916;DHT22;8057;47.830;-3.870;2024-02-21T17:47:53;12.90;99.90
15916;DHT22;8057;47.830;-3.870;2024-02-21T17:52:03;12.90;99.90
15916;DHT22;8057;47.830;-3.870;2024-02-21T17:56:12;12.90;99.90
15916;DHT22;8057;47.830;-3.870;2024-02-21T18:00:22;12.90;99.90
15916;DHT22;8057;47.830;-3.870;2024-02-21T18:04:32;12.90;99.90
15916;DHT22;8057;47.830;-3.870;2024-02-21T18:08:41;13.00;99.90
15916;DHT22;8057;47.830;-3.870;2024-02-21T18:12:50;13.00;99.90
15916;DHT22;8057;47.830;-3.870;2024-02-21T18:17:01;13.00;99.90
15916;DHT22;8057;47.830;-3.870;2024-02-21T18:21:10;13.00;99.90
15916;DHT22;8057;47.830;-3.870;2024-02-21T18:25:19;13.00;99.90
15916;DHT22;8057;47.830;-3.870;2024-02-21T18:29:31;13.00;99.90
15916;DHT22;8057;47.830;-3.870;2024-02-21T18:33:48;12.90;99.90
15916;DHT22;8057;47.830;-3.870;2024-02-21T18:37:57;12.90;99.90
15916;DHT22;8057;47.830;-3.870;2024-02-21T18:42:06;13.00;99.90
15916;DHT22;8057;47.830;-3.870;2024-02-21T18:46:15;13.00;99.90
15916;DHT22;8057;47.830;-3.870;2024-02-21T18:50:26;13.00;99.90
15916;DHT22;8057;47.830;-3.870;2024-02-21T18:54:39;13.00;99.90
15916;DHT22;8057;47.830;-3.870;2024-02-21T18:58:49;13.00;99.90
15916;DHT22;8057;47.830;-3.870;2024-02-21T19:02:58;13.00;99.90
15916;DHT22;8057;47.830;-3.870;2024-02-21T19:07:09;12.90;99.90
15916;DHT22;8057;47.830;-3.870;2024-02-21T19:11:18;12.90;99.90
15916;DHT22;8057;47.830;-3.870;2024-02-21T19:15:27;12.90;99.90
15916;DHT22;8057;47.830;-3.870;2024-02-21T19:19:36;12.90;99.90
15916;DHT22;8057;47.830;-3.870;2024-02-21T19:23:47;12.80;99.90
15916;DHT22;8057;47.830;-3.870;2024-02-21T19:27:56;12.90;99.90
15916;DHT22;8057;47.830;-3.870;2024-02-21T19:32:05;12.90;99.90
15916;DHT22;8057;47.830;-3.870;2024-02-21T19:36:15;12.90;99.90
15916;DHT22;8057;47.830;-3.870;2024-02-21T19:40:25;12.90;99.90
15916;DHT22;8057;47.830;-3.870;2024-02-21T19:44:36;12.90;99.90
15916;DHT22;8057;47.830;-3.870;2024-02-21T19:48:45;12.90;99.90
15916;DHT22;8057;47.830;-3.870;2024-02-21T19:52:57;12.90;99.90
15916;DHT22;8057;47.830;-3.870;2024-02-21T19:57:08;12.90;99.90
15916;DHT22;8057;47.830;-3.870;2024-02-21T20:01:20;12.80;99.90
15916;DHT22;8057;47.830;-3.870;2024-02-21T20:05:29;12.80;99.90
15916;DHT22;8057;47.830;-3.870;2024-02-21T20:09:41;12.90;99.90
15916;DHT22;8057;47.830;-3.870;2024-02-21T20:13:51;12.90;99.90
15916;DHT22;8057;47.830;-3.870;2024-02-21T20:18:00;12.90;99.90
15916;DHT22;8057;47.830;-3.870;2024-02-21T20:22:11;12.90;99.90
15916;DHT22;8057;47.830;-3.870;2024-02-21T20:26:20;12.90;99.90
15916;DHT22;8057;47.830;-3.870;2024-02-21T20:30:31;12.90;99.90
15916;DHT22;8057;47.830;-3.870;2024-02-21T20:34:40;12.90;99.90
15916;DHT22;8057;47.830;-3.870;2024-02-21T20:38:51;12.90;99.90
15916;DHT22;8057;47.830;-3.870;2024-02-21T20:43:00;13.00;99.90
15916;DHT22;8057;47.830;-3.870;2024-02-21T20:47:12;12.90;99.90
15916;DHT22;8057;47.830;-3.870;2024-02-21T20:51:21;12.80;99.90
15916;DHT22;8057;47.830;-3.870;2024-02-21T20:55:30;12.90;99.90
15916;DHT22;8057;47.830;-3.870;2024-02-21T20:59:39;12.90;99.90
15916;DHT22;8057;47.830;-3.870;2024-02-21T21:03:50;13.00;99.90
15916;DHT22;8057;47.830;-3.870;2024-02-21T21:07:59;13.00;99.90
15916;DHT22;8057;47.830;-3.870;2024-02-21T21:12:08;13.00;99.90
15916;DHT22;8057;47.830;-3.870;2024-02-21T21:16:17;13.10;99.90
15916;DHT22;8057;47.830;-3.870;2024-02-21T21:20:28;13.00;99.90
15916;DHT22;8057;47.830;-3.870;2024-02-21T21:24:39;13.00;99.90
15916;DHT22;8057;47.830;-3.870;2024-02-21T21:28:48;13.00;99.90
15916;DHT22;8057;47.830;-3.870;2024-02-21T21:32:57;13.00;99.90
15916;DHT22;8057;47.830;-3.870;2024-02-21T21:37:11;13.00;99.90
15916;DHT22;8057;47.830;-3.870;2024-02-21T21:41:20;13.00;99.90
15916;DHT22;8057;47.830;-3.870;2024-02-21T21:45:30;12.90;99.90
15916;DHT22;8057;47.830;-3.870;2024-02-21T21:49:39;12.90;99.90
15916;DHT22;8057;47.830;-3.870;2024-02-21T21:53:50;13.00;99.90
15916;DHT22;8057;47.830;-3.870;2024-02-21T21:57:59;13.00;99.90
15916;DHT22;8057;47.830;-3.870;2024-02-21T22:02:08;13.00;99.90
15916;DHT22;8057;47.830;-3.870;2024-02-21T22:06:17;13.00;99.90
15916;DHT22;8057;47.830;-3.870;2024-02-21T22:10:28;13.00;99.90
15916;DHT22;8057;47.830;-3.870;2024-02-21T22:14:37;13.00;99.90
15916;DHT22;8057;47.830;-3.870;2024-02-21T22:18:46;13.00;99.90
15916;DHT22;8057;47.830;-3.870;2024-02-21T22:22:55;13.00;99.90
15916;DHT22;8057;47.830;-3.870;2024-02-21T22:27:06;13.00;99.90
15916;DHT22;8057;47.830;-3.870;2024-02-21T22:31:15;13.00;99.90
15916;DHT22;8057;47.830;-3.870;2024-02-21T22:35:24;13.00;99.90
15916;DHT22;8057;47.830;-3.870;2024-02-21T22:39:33;13.00;99.90
15916;DHT22;8057;47.830;-3.870;2024-02-21T22:43:45;13.00;99.90
15916;DHT22;8057;47.830;-3.870;2024-02-21T22:47:54;13.00;99.90
15916;DHT22;8057;47.830;-3.870;2024-02-21T22:52:03;12.90;99.90
15916;DHT22;8057;47.830;-3.870;2024-02-21T22:56:12;13.00;99.90
15916;DHT22;8057;47.830;-3.870;2024-02-21T23:00:23;13.00;99.90
15916;DHT22;8057;47.830;-3.870;2024-02-21T23:04:32;13.00;99.90
15916;DHT22;8057;47.830;-3.870;2024-02-21T23:08:42;13.00;99.90
15916;DHT22;8057;47.830;-3.870;2024-02-21T23:12:51;13.00;99.90
15916;DHT22;8057;47.830;-3.870;2024-02-21T23:17:01;13.00;99.90
15916;DHT22;8057;47.830;-3.870;2024-02-21T23:21:10;13.00;99.90
15916;DHT22;8057;47.830;-3.870;2024-02-21T23:25:20;13.00;99.90
15916;DHT22;8057;47.830;-3.870;2024-02-21T23:29:31;13.00;99.90
15916;DHT22;8057;47.830;-3.870;2024-02-21T23:33:42;12.90;99.90
15916;DHT22;8057;47.830;-3.870;2024-02-21T23:37:51;12.90;99.90
15916;DHT22;8057;47.830;-3.870;2024-02-21T23:42:01;12.90;99.90
15916;DHT22;8057;47.830;-3.870;2024-02-21T23:46:10;13.00;99.90
15916;DHT22;8057;47.830;-3.870;2024-02-21T23:50:22;13.00;99.90
15916;DHT22;8057;47.830;-3.870;2024-02-21T23:54:31;13.00;99.90
15916;DHT22;8057;47.830;-3.870;2024-02-21T23:58:40;13.00;99.90
